This is the latest recevied weather packets stored in our database for station/object VK2EHQ. If no packets are shown the sender has not sent any weather packets the latest 10 day(s).
| Time | Temp. | Humidity | Pressure | Rain* | Wind** | Luminosity | Snow |
|---|---|---|---|---|---|---|---|
| 1788143463 | 21.67° C | 49% | 1030.4 hPa | 0 mm | - | - | - |
| 1788121861 | 10° C | 41% | 1031.1 hPa | 0 mm | - | - | - |
| 1788121261 | 10° C | 41% | 1031 hPa | 0 mm | - | - | - |
| 1788120661 | 10° C | 42% | 1030.9 hPa | 0 mm | - | - | - |
| 1788120061 | 10.56° C | 42% | 1030.7 hPa | 0 mm | - | - | - |
| 1788118260 | 11.11° C | 44% | 1030.7 hPa | 0 mm | - | - | - |
| 1788117660 | 11.11° C | 44% | 1030.7 hPa | 0 mm | - | - | - |
| 1788115860 | 11.67° C | 47% | 1030.7 hPa | 0 mm | - | - | - |
| 1788114660 | 11.67° C | 50% | 1030.7 hPa | 0 mm | - | - | - |
| 1788114060 | 11.67° C | 51% | 1030.7 hPa | 0 mm | - | - | - |
| 1788113473 | 11.67° C | 52% | 1030.8 hPa | 0 mm | - | - | - |
| 1788113460 | 11.67° C | 52% | 1030.8 hPa | 0 mm | - | - | - |
| 1788112860 | 11.67° C | 52% | 1030.8 hPa | 0 mm | - | - | - |
| 1788111660 | 11.67° C | 55% | 1030.8 hPa | 0 mm | - | - | - |
| 1788111060 | 11.67° C | 56% | 1030.7 hPa | 0 mm | - | - | - |
| 1788109860 | 11.67° C | 57% | 1030.7 hPa | 0 mm | - | - | - |
| 1788109260 | 11.67° C | 58% | 1030.8 hPa | 0 mm | - | - | - |
| 1788108660 | 11.67° C | 58% | 1030.8 hPa | 0 mm | - | - | - |
| 1788107459 | 11.67° C | 59% | 1030.8 hPa | 0 mm | - | - | - |
| 1788106259 | 11.67° C | 60% | 1030.9 hPa | 0 mm | - | - | - |
| 1788105659 | 12.22° C | 61% | 1031 hPa | 0 mm | - | - | - |
| 1788104459 | 12.78° C | 62% | 1031.1 hPa | 0 mm | - | - | - |
| 1788103859 | 12.78° C | 64% | 1031.1 hPa | 0 mm | - | - | - |
| 1788103259 | 12.78° C | 67% | 1031.2 hPa | 0 mm | - | - | - |
| 1788102659 | 12.78° C | 68% | 1031.3 hPa | 0 mm | - | - | - |
* Rain latest hour (hover to see other rain measurements)
** Current wind speed in m/s (hover to see current wind gust speed)